Pernille — 5BNZ2 — position and weather

sailwx.info

Track history (hours):
 
Tides and Currents Weather Stations Pressure Air Temp Water Temp Dewpoint Dewpoint Depression Visibility Wind Speed Wind Dir Waves Ship Positions

Pernille

Last reported at 2016-May-06 10:32 UTC. Time now 2016-May-06 11:12 UTC.
Position N 53°21' E 008°30'.

Length 82 m; draft 3.9 m.

Type: Cargo ship. MMSI: 212662000.

Date/timePositionNaut miles runAvg speedWind from/ knotsBaromVisibWave heightAir tempDewpointWater temp
2016-May-06 10:32N 53°21' E 008°30'0 0.0
2016-May-06 09:32N 53°21' E 008°30'0 0.0
2016-May-06 08:32N 53°21' E 008°30'0 0.0
2016-May-06 07:32N 53°21' E 008°30'0 0.0
2016-May-06 06:32N 53°21' E 008°30'0 0.0
2016-May-06 05:32N 53°21' E 008°30'0 0.0
2016-May-06 04:32N 53°21' E 008°30'0 0.0
2016-May-06 03:32N 53°21' E 008°30'0 0.0
2016-May-06 02:32N 53°21' E 008°30'0 0.0
2016-May-06 01:32N 53°21' E 008°30'0 0.0
2016-May-06 00:32N 53°21' E 008°30'1 0.8
2016-May-05 23:33N 53°21' E 008°30'1211.6
2016-May-05 22:33N 53°33' E 008°34'1110.7
2016-May-05 21:33N 53°41' E 008°22'1313.3
2016-May-05 20:33N 53°50' E 008°05'1313.3
2016-May-05 19:33N 53°53' E 007°43'1313.3
2016-May-05 18:33N 53°52' E 007°20'1313.2
2016-May-05 17:33N 53°49' E 006°59'1312.7
2016-May-05 16:33N 53°47' E 006°37'1211.8
2016-May-05 15:33N 53°44' E 006°18'1111.2
2016-May-05 14:33N 53°40' E 006°00'1110.8
2016-May-05 13:33N 53°37' E 005°43'1110.6
2016-May-05 12:33N 53°33' E 005°26'1010.4
2016-May-05 11:33N 53°30' E 005°09'4110.3
2016-May-05 07:33N 52°60' E 004°22'1210.9
2016-May-05 06:29N 52°50' E 004°12'1011.2
2016-May-05 05:33N 52°41' E 004°02'1211.7
2016-May-05 04:31N 52°33' E 003°48'1211.9
2016-May-05 03:32N 52°24' E 003°35'1312.1
2016-May-05 02:29N 52°12' E 003°28'2612.6
2016-May-05 00:26N 51°47' E 003°17'1111.9
2016-May-04 23:32N 51°37' E 003°22'1111.4
2016-May-04 22:33N 51°27' E 003°31'8 8.2
2016-May-04 21:33N 51°25' E 003°44'7 7.4
2016-May-04 20:33N 51°25' E 003°55'8 8.0
2016-May-04 19:33N 51°22' E 004°07'9 9.3
2016-May-04 18:33N 51°17' E 004°19'1 0.5
2016-May-04 17:34N 51°17' E 004°20'1 0.9
2016-May-04 16:33N 51°16' E 004°21'0 0.0
2016-May-04 15:27N 51°16' E 004°21'0 0.0
2016-May-04 14:33N 51°16' E 004°21'0 0.0
2016-May-04 13:33N 51°16' E 004°21'0 0.0
2016-May-04 12:33N 51°16' E 004°21'0 0.0
2016-May-04 11:33N 51°16' E 004°21'0 0.0
2016-May-04 10:33N 51°16' E 004°21'0 0.0
2016-May-04 09:33N 51°16' E 004°21'0 0.0
2016-May-04 08:30N 51°16' E 004°21'0 0.0
2016-May-04 07:33N 51°16' E 004°21'0 0.0
2016-May-04 06:33N 51°16' E 004°21'0 0.0
2016-May-04 05:33N 51°16' E 004°21'0 0.0
2016-May-04 04:33N 51°16' E 004°21'0 0.0
2016-May-04 03:33N 51°16' E 004°21'0 0.0
2016-May-04 02:33N 51°16' E 004°21'0 0.0
2016-May-04 01:33N 51°16' E 004°21'0 0.0
2016-May-04 00:33N 51°16' E 004°21'0 0.0
2016-May-03 23:33N 51°16' E 004°21'0 0.0
2016-May-03 22:33N 51°16' E 004°21'0 0.0
2016-May-03 21:33N 51°16' E 004°21'0 0.0
2016-May-03 20:33N 51°16' E 004°21'0 0.0
2016-May-03 19:30N 51°16' E 004°21'0 0.0
2016-May-03 18:30N 51°16' E 004°21'0 0.0
2016-May-03 17:33N 51°16' E 004°21'0 0.0
2016-May-03 16:33N 51°16' E 004°21'0 0.0
2016-May-03 15:33N 51°16' E 004°21'0 0.0
2016-May-03 14:33N 51°16' E 004°21'0 0.0
2016-May-03 13:33N 51°16' E 004°21'0 0.0
2016-May-03 12:33N 51°16' E 004°21'0 0.0
2016-May-03 11:33N 51°16' E 004°21'0 0.0
2016-May-03 10:30N 51°17' E 004°21'0 0.0
2016-May-03 09:33N 51°17' E 004°21'0 0.0
2016-May-03 08:33N 51°17' E 004°21'0 0.0
2016-May-03 07:33N 51°17' E 004°21'0 0.0
2016-May-03 06:33N 51°17' E 004°21'0 0.0
2016-May-03 05:33N 51°17' E 004°21'0 0.0
2016-May-03 04:33N 51°17' E 004°21'0 0.0
2016-May-03 03:33N 51°17' E 004°21'0 0.0
2016-May-03 02:33N 51°17' E 004°21'0 0.0
2016-May-03 01:33N 51°17' E 004°21'0 0.0
2016-May-03 00:33N 51°17' E 004°21'0 0.0
2016-May-02 23:33N 51°17' E 004°21'0 0.0
2016-May-02 22:33N 51°17' E 004°21'0 0.0
2016-May-02 21:33N 51°17' E 004°21'0 0.0
2016-May-02 20:33N 51°17' E 004°21'0 0.0
2016-May-02 19:33N 51°17' E 004°21'0 0.0
2016-May-02 18:33N 51°17' E 004°21'0 0.0
2016-May-02 17:33N 51°17' E 004°21'0 0.0
2016-May-02 16:33N 51°17' E 004°21'0 0.0
2016-May-02 15:33N 51°17' E 004°21'0 0.0
2016-May-02 14:33N 51°17' E 004°21'0 0.0
2016-May-02 13:33N 51°17' E 004°21'0 0.0
2016-May-02 12:33N 51°17' E 004°21'0 0.0
2016-May-02 11:33N 51°17' E 004°21'0 0.0
2016-May-02 10:33N 51°17' E 004°21'0 0.0
2016-May-02 09:33N 51°17' E 004°21'0 0.0
2016-May-02 08:33N 51°17' E 004°21'0 0.0
2016-May-02 07:33N 51°17' E 004°21'0 0.0
2016-May-02 06:30N 51°17' E 004°21'0 0.0
2016-May-02 05:30N 51°17' E 004°21'0 0.0
2016-May-02 04:30N 51°17' E 004°21'0 0.0
2016-May-02 03:33N 51°17' E 004°21'0 0.0
2016-May-02 02:33N 51°17' E 004°21'0 0.0
2016-May-02 01:30N 51°17' E 004°21'0 0.0
2016-May-02 00:33N 51°17' E 004°21'0 0.0
2016-May-01 23:33N 51°17' E 004°21'0 0.0
2016-May-01 22:33N 51°17' E 004°21'0 0.0
2016-May-01 21:30N 51°17' E 004°21'0 0.0
2016-May-01 20:33N 51°17' E 004°21'0 0.0
2016-May-01 19:33N 51°17' E 004°21'0 0.0
2016-May-01 18:33N 51°17' E 004°21'0 0.0
2016-May-01 17:33N 51°17' E 004°21'0 0.0
2016-May-01 16:30N 51°17' E 004°21'0 0.0
2016-May-01 15:33N 51°17' E 004°21'0 0.0
2016-May-01 14:33N 51°17' E 004°21'0 0.0
2016-May-01 13:33N 51°17' E 004°21'0 0.0
2016-May-01 12:33N 51°17' E 004°21'0 0.0
2016-May-01 11:33N 51°17' E 004°21'0 0.0
2016-May-01 10:30N 51°17' E 004°21'0 0.0
2016-May-01 09:33N 51°17' E 004°21'0 0.0
2016-May-01 08:33N 51°17' E 004°21'0 0.0
2016-May-01 07:33N 51°17' E 004°21'0 0.0
2016-May-01 06:30N 51°17' E 004°21'0 0.0
2016-May-01 05:33N 51°17' E 004°21'0 0.0
2016-May-01 04:30N 51°17' E 004°21'1 0.9
2016-May-01 03:34N 51°17' E 004°20'2 1.8
2016-May-01 02:34N 51°18' E 004°18'7 7.1
2016-May-01 01:33N 51°23' E 004°10'7 6.7
2016-May-01 00:34N 51°26' E 004°00'8 7.8
2016-Apr-30 23:33N 51°21' E 003°51'8 7.8
2016-Apr-30 22:34N 51°25' E 003°40'8 8.0
2016-Apr-30 21:34N 51°29' E 003°30'9 9.2
2016-Apr-30 20:32N 51°37' E 003°22'131 9.1
2016-Apr-30 06:11N 53°33' E 005°01'5 8.0
2016-Apr-30 05:32N 53°35' E 005°09'8 8.2
2016-Apr-30 04:34N 53°38' E 005°22'8 8.5
2016-Apr-30 03:34N 53°40' E 005°35'8 8.3
2016-Apr-30 02:33N 53°43' E 005°49'8 7.8
2016-Apr-30 01:33N 53°45' E 006°01'9 7.9
2016-Apr-30 00:23N 53°48' E 006°16'6 7.3
2016-Apr-29 23:32N 53°50' E 006°26'8 7.7
2016-Apr-29 22:33N 53°52' E 006°39'9 8.6
2016-Apr-29 21:33N 53°54' E 006°53'1110.6
2016-Apr-29 20:34N 53°56' E 007°10'1110.9
2016-Apr-29 19:33N 53°59' E 007°28'1111.0
2016-Apr-29 18:33N 54°01' E 007°47'1111.2
2016-Apr-29 17:33N 54°01' E 008°06'1111.2
2016-Apr-29 16:33N 53°60' E 008°24'10 9.7
2016-Apr-29 15:33N 53°56' E 008°40'8 7.5
2016-Apr-29 14:33N 53°51' E 008°48'7 7.3
2016-Apr-29 13:33N 53°51' E 009°01'5 5.3
2016-Apr-29 12:33N 53°54' E 009°09'6 5.7
2016-Apr-29 11:33N 53°58' E 009°15'27 6.4
2016-Apr-29 07:20N 54°19' E 009°43'6 7.6
2016-Apr-29 06:34N 54°22' E 009°52'7 7.2
2016-Apr-29 05:33N 54°22' E 010°05'3 2.7
2016-Apr-29 04:33N 54°22' E 010°09'7 6.8
2016-Apr-29 03:34N 54°28' E 010°15'13 9.9
2016-Apr-29 02:17N 54°34' E 010°34'710.1
2016-Apr-29 01:34N 54°35' E 010°47'1010.0
2016-Apr-29 00:34N 54°36' E 011°04'10 9.8
2016-Apr-28 23:34N 54°33' E 011°20'1010.3
2016-Apr-28 22:34N 54°29' E 011°36'1010.1
2016-Apr-28 21:33N 54°27' E 011°53'10 9.6
2016-Apr-28 20:33N 54°28' E 012°10'1010.3
2016-Apr-28 19:33N 54°37' E 012°16'31 9.7
2016-Apr-28 16:22N 55°06' E 012°38'910.7
2016-Apr-28 15:34N 55°14' E 012°38'1010.3
2016-Apr-28 14:33N 55°25' E 012°39'1010.1
2016-Apr-28 13:34N 55°34' E 012°42'10 9.6
2016-Apr-28 12:33N 55°44' E 012°41'1010.0
2016-Apr-28 11:34N 55°54' E 012°39'8 7.6
2016-Apr-28 10:34N 56°01' E 012°42'0 0.0
2016-Apr-28 09:32N 56°01' E 012°42'0 0.0
2016-Apr-28 08:33N 56°01' E 012°42'0 0.0
2016-Apr-28 07:33N 56°01' E 012°42'0 0.0
2016-Apr-28 06:33N 56°01' E 012°42'0 0.0
2016-Apr-28 05:33N 56°01' E 012°42'0 0.0
2016-Apr-28 04:30N 56°01' E 012°42'0 0.0
2016-Apr-28 03:33N 56°01' E 012°42'0 0.0
2016-Apr-28 02:33N 56°01' E 012°42'0 0.0
2016-Apr-28 01:32N 56°01' E 012°42'0 0.0
2016-Apr-28 00:32N 56°01' E 012°42'0 0.0
2016-Apr-27 23:32N 56°01' E 012°42'0 0.0
2016-Apr-27 22:29N 56°01' E 012°42'0 0.0
2016-Apr-27 21:33N 56°01' E 012°42'0 0.0
2016-Apr-27 20:32N 56°01' E 012°42'0 0.0
2016-Apr-27 19:33N 56°01' E 012°42'0 0.0
2016-Apr-27 18:33N 56°01' E 012°42'0 0.0
2016-Apr-27 17:33N 56°01' E 012°42'0 0.0
2016-Apr-27 16:33N 56°01' E 012°42'0 0.0
2016-Apr-27 15:33N 56°01' E 012°42'0 0.0
2016-Apr-27 14:32N 56°01' E 012°42'0 0.0
2016-Apr-27 13:32N 56°01' E 012°42'0 0.0
2016-Apr-27 12:32N 56°01' E 012°42'0 0.0
2016-Apr-27 11:32N 56°01' E 012°42'0 0.0
2016-Apr-27 10:32N 56°01' E 012°42'6 6.4
2016-Apr-27 09:33N 55°55' E 012°44'1111.5
2016-Apr-27 08:33N 55°44' E 012°42'1110.9
2016-Apr-27 07:34N 55°33' E 012°43'1111.0
2016-Apr-27 06:33N 55°22' E 012°42'1110.8
2016-Apr-27 05:34N 55°11' E 012°40'2410.5
2016-Apr-27 03:15N 54°48' E 012°30'2111.2
2016-Apr-27 01:24N 54°29' E 012°15'8 9.7
2016-Apr-27 00:33N 54°25' E 012°03'1111.1
2016-Apr-26 23:33N 54°25' E 011°44'1110.9
2016-Apr-26 22:33N 54°30' E 011°27'1110.8
2016-Apr-26 21:34N 54°35' E 011°10'1110.8
2016-Apr-26 20:33N 54°34' E 010°51'1711.2
2016-Apr-26 19:04N 54°30' E 010°23'510.7
2016-Apr-26 18:34N 54°27' E 010°16'7 6.6
2016-Apr-26 17:33N 54°22' E 010°09'6 6.4
2016-Apr-26 16:33N 54°21' E 009°58'7 7.4
2016-Apr-26 15:33N 54°21' E 009°45'21 6.9
2016-Apr-26 12:31N 54°06' E 009°20'8 8.1
2016-Apr-26 11:33N 53°59' E 009°16'7 6.6
2016-Apr-26 10:33N 53°54' E 009°09'  
Track history (hours):
 
Tides and Currents Weather Stations Pressure Air Temp Water Temp Dewpoint Dewpoint Depression Visibility Wind Speed Wind Dir Waves Ship Positions

Pernille

Last reported at 2016-May-06 10:32 UTC. Time now 2016-May-06 11:12 UTC.
Position N 53°21' E 008°30'.

Length 82 m; draft 3.9 m.

Type: Cargo ship. MMSI: 212662000.

Date/timePositionNaut miles runAvg speedWind from/ knotsBaromVisibWave heightAir tempDewpointWater temp
2016-May-06 10:32N 53°21' E 008°30'0 0.0
2016-May-06 09:32N 53°21' E 008°30'0 0.0
2016-May-06 08:32N 53°21' E 008°30'0 0.0
2016-May-06 07:32N 53°21' E 008°30'0 0.0
2016-May-06 06:32N 53°21' E 008°30'0 0.0
2016-May-06 05:32N 53°21' E 008°30'0 0.0
2016-May-06 04:32N 53°21' E 008°30'0 0.0
2016-May-06 03:32N 53°21' E 008°30'0 0.0
2016-May-06 02:32N 53°21' E 008°30'0 0.0
2016-May-06 01:32N 53°21' E 008°30'0 0.0
2016-May-06 00:32N 53°21' E 008°30'1 0.8
2016-May-05 23:33N 53°21' E 008°30'1211.6
2016-May-05 22:33N 53°33' E 008°34'1110.7
2016-May-05 21:33N 53°41' E 008°22'1313.3
2016-May-05 20:33N 53°50' E 008°05'1313.3
2016-May-05 19:33N 53°53' E 007°43'1313.3
2016-May-05 18:33N 53°52' E 007°20'1313.2
2016-May-05 17:33N 53°49' E 006°59'1312.7
2016-May-05 16:33N 53°47' E 006°37'1211.8
2016-May-05 15:33N 53°44' E 006°18'1111.2
2016-May-05 14:33N 53°40' E 006°00'1110.8
2016-May-05 13:33N 53°37' E 005°43'1110.6
2016-May-05 12:33N 53°33' E 005°26'1010.4
2016-May-05 11:33N 53°30' E 005°09'4110.3
2016-May-05 07:33N 52°60' E 004°22'1210.9
2016-May-05 06:29N 52°50' E 004°12'1011.2
2016-May-05 05:33N 52°41' E 004°02'1211.7
2016-May-05 04:31N 52°33' E 003°48'1211.9
2016-May-05 03:32N 52°24' E 003°35'1312.1
2016-May-05 02:29N 52°12' E 003°28'2612.6
2016-May-05 00:26N 51°47' E 003°17'1111.9
2016-May-04 23:32N 51°37' E 003°22'1111.4
2016-May-04 22:33N 51°27' E 003°31'8 8.2
2016-May-04 21:33N 51°25' E 003°44'7 7.4
2016-May-04 20:33N 51°25' E 003°55'8 8.0
2016-May-04 19:33N 51°22' E 004°07'9 9.3
2016-May-04 18:33N 51°17' E 004°19'1 0.5
2016-May-04 17:34N 51°17' E 004°20'1 0.9
2016-May-04 16:33N 51°16' E 004°21'0 0.0
2016-May-04 15:27N 51°16' E 004°21'0 0.0
2016-May-04 14:33N 51°16' E 004°21'0 0.0
2016-May-04 13:33N 51°16' E 004°21'0 0.0
2016-May-04 12:33N 51°16' E 004°21'0 0.0
2016-May-04 11:33N 51°16' E 004°21'0 0.0
2016-May-04 10:33N 51°16' E 004°21'0 0.0
2016-May-04 09:33N 51°16' E 004°21'0 0.0
2016-May-04 08:30N 51°16' E 004°21'0 0.0
2016-May-04 07:33N 51°16' E 004°21'0 0.0
2016-May-04 06:33N 51°16' E 004°21'0 0.0
2016-May-04 05:33N 51°16' E 004°21'0 0.0
2016-May-04 04:33N 51°16' E 004°21'0 0.0
2016-May-04 03:33N 51°16' E 004°21'0 0.0
2016-May-04 02:33N 51°16' E 004°21'0 0.0
2016-May-04 01:33N 51°16' E 004°21'0 0.0
2016-May-04 00:33N 51°16' E 004°21'0 0.0
2016-May-03 23:33N 51°16' E 004°21'0 0.0
2016-May-03 22:33N 51°16' E 004°21'0 0.0
2016-May-03 21:33N 51°16' E 004°21'0 0.0
2016-May-03 20:33N 51°16' E 004°21'0 0.0
2016-May-03 19:30N 51°16' E 004°21'0 0.0
2016-May-03 18:30N 51°16' E 004°21'0 0.0
2016-May-03 17:33N 51°16' E 004°21'0 0.0
2016-May-03 16:33N 51°16' E 004°21'0 0.0
2016-May-03 15:33N 51°16' E 004°21'0 0.0
2016-May-03 14:33N 51°16' E 004°21'0 0.0
2016-May-03 13:33N 51°16' E 004°21'0 0.0
2016-May-03 12:33N 51°16' E 004°21'0 0.0
2016-May-03 11:33N 51°16' E 004°21'0 0.0
2016-May-03 10:30N 51°17' E 004°21'0 0.0
2016-May-03 09:33N 51°17' E 004°21'0 0.0
2016-May-03 08:33N 51°17' E 004°21'0 0.0
2016-May-03 07:33N 51°17' E 004°21'0 0.0
2016-May-03 06:33N 51°17' E 004°21'0 0.0
2016-May-03 05:33N 51°17' E 004°21'0 0.0
2016-May-03 04:33N 51°17' E 004°21'0 0.0
2016-May-03 03:33N 51°17' E 004°21'0 0.0
2016-May-03 02:33N 51°17' E 004°21'0 0.0
2016-May-03 01:33N 51°17' E 004°21'0 0.0
2016-May-03 00:33N 51°17' E 004°21'0 0.0
2016-May-02 23:33N 51°17' E 004°21'0 0.0
2016-May-02 22:33N 51°17' E 004°21'0 0.0
2016-May-02 21:33N 51°17' E 004°21'0 0.0
2016-May-02 20:33N 51°17' E 004°21'0 0.0
2016-May-02 19:33N 51°17' E 004°21'0 0.0
2016-May-02 18:33N 51°17' E 004°21'0 0.0
2016-May-02 17:33N 51°17' E 004°21'0 0.0
2016-May-02 16:33N 51°17' E 004°21'0 0.0
2016-May-02 15:33N 51°17' E 004°21'0 0.0
2016-May-02 14:33N 51°17' E 004°21'0 0.0
2016-May-02 13:33N 51°17' E 004°21'0 0.0
2016-May-02 12:33N 51°17' E 004°21'0 0.0
2016-May-02 11:33N 51°17' E 004°21'0 0.0
2016-May-02 10:33N 51°17' E 004°21'0 0.0
2016-May-02 09:33N 51°17' E 004°21'0 0.0
2016-May-02 08:33N 51°17' E 004°21'0 0.0
2016-May-02 07:33N 51°17' E 004°21'0 0.0
2016-May-02 06:30N 51°17' E 004°21'0 0.0
2016-May-02 05:30N 51°17' E 004°21'0 0.0
2016-May-02 04:30N 51°17' E 004°21'0 0.0
2016-May-02 03:33N 51°17' E 004°21'0 0.0
2016-May-02 02:33N 51°17' E 004°21'0 0.0
2016-May-02 01:30N 51°17' E 004°21'0 0.0
2016-May-02 00:33N 51°17' E 004°21'0 0.0
2016-May-01 23:33N 51°17' E 004°21'0 0.0
2016-May-01 22:33N 51°17' E 004°21'0 0.0
2016-May-01 21:30N 51°17' E 004°21'0 0.0
2016-May-01 20:33N 51°17' E 004°21'0 0.0
2016-May-01 19:33N 51°17' E 004°21'0 0.0
2016-May-01 18:33N 51°17' E 004°21'0 0.0
2016-May-01 17:33N 51°17' E 004°21'0 0.0
2016-May-01 16:30N 51°17' E 004°21'0 0.0
2016-May-01 15:33N 51°17' E 004°21'0 0.0
2016-May-01 14:33N 51°17' E 004°21'0 0.0
2016-May-01 13:33N 51°17' E 004°21'0 0.0
2016-May-01 12:33N 51°17' E 004°21'0 0.0
2016-May-01 11:33N 51°17' E 004°21'0 0.0
2016-May-01 10:30N 51°17' E 004°21'0 0.0
2016-May-01 09:33N 51°17' E 004°21'0 0.0
2016-May-01 08:33N 51°17' E 004°21'0 0.0
2016-May-01 07:33N 51°17' E 004°21'0 0.0
2016-May-01 06:30N 51°17' E 004°21'0 0.0
2016-May-01 05:33N 51°17' E 004°21'0 0.0
2016-May-01 04:30N 51°17' E 004°21'1 0.9
2016-May-01 03:34N 51°17' E 004°20'2 1.8
2016-May-01 02:34N 51°18' E 004°18'7 7.1
2016-May-01 01:33N 51°23' E 004°10'7 6.7
2016-May-01 00:34N 51°26' E 004°00'8 7.8
2016-Apr-30 23:33N 51°21' E 003°51'8 7.8
2016-Apr-30 22:34N 51°25' E 003°40'8 8.0
2016-Apr-30 21:34N 51°29' E 003°30'9 9.2
2016-Apr-30 20:32N 51°37' E 003°22'131 9.1
2016-Apr-30 06:11N 53°33' E 005°01'5 8.0
2016-Apr-30 05:32N 53°35' E 005°09'8 8.2
2016-Apr-30 04:34N 53°38' E 005°22'8 8.5
2016-Apr-30 03:34N 53°40' E 005°35'8 8.3
2016-Apr-30 02:33N 53°43' E 005°49'8 7.8
2016-Apr-30 01:33N 53°45' E 006°01'9 7.9
2016-Apr-30 00:23N 53°48' E 006°16'6 7.3
2016-Apr-29 23:32N 53°50' E 006°26'8 7.7
2016-Apr-29 22:33N 53°52' E 006°39'9 8.6
2016-Apr-29 21:33N 53°54' E 006°53'1110.6
2016-Apr-29 20:34N 53°56' E 007°10'1110.9
2016-Apr-29 19:33N 53°59' E 007°28'1111.0
2016-Apr-29 18:33N 54°01' E 007°47'1111.2
2016-Apr-29 17:33N 54°01' E 008°06'1111.2
2016-Apr-29 16:33N 53°60' E 008°24'10 9.7
2016-Apr-29 15:33N 53°56' E 008°40'8 7.5
2016-Apr-29 14:33N 53°51' E 008°48'7 7.3
2016-Apr-29 13:33N 53°51' E 009°01'5 5.3
2016-Apr-29 12:33N 53°54' E 009°09'6 5.7
2016-Apr-29 11:33N 53°58' E 009°15'27 6.4
2016-Apr-29 07:20N 54°19' E 009°43'6 7.6
2016-Apr-29 06:34N 54°22' E 009°52'7 7.2
2016-Apr-29 05:33N 54°22' E 010°05'3 2.7
2016-Apr-29 04:33N 54°22' E 010°09'7 6.8
2016-Apr-29 03:34N 54°28' E 010°15'13 9.9
2016-Apr-29 02:17N 54°34' E 010°34'710.1
2016-Apr-29 01:34N 54°35' E 010°47'1010.0
2016-Apr-29 00:34N 54°36' E 011°04'10 9.8
2016-Apr-28 23:34N 54°33' E 011°20'1010.3
2016-Apr-28 22:34N 54°29' E 011°36'1010.1
2016-Apr-28 21:33N 54°27' E 011°53'10 9.6
2016-Apr-28 20:33N 54°28' E 012°10'1010.3
2016-Apr-28 19:33N 54°37' E 012°16'31 9.7
2016-Apr-28 16:22N 55°06' E 012°38'910.7
2016-Apr-28 15:34N 55°14' E 012°38'1010.3
2016-Apr-28 14:33N 55°25' E 012°39'1010.1
2016-Apr-28 13:34N 55°34' E 012°42'10 9.6
2016-Apr-28 12:33N 55°44' E 012°41'1010.0
2016-Apr-28 11:34N 55°54' E 012°39'8 7.6
2016-Apr-28 10:34N 56°01' E 012°42'0 0.0
2016-Apr-28 09:32N 56°01' E 012°42'0 0.0
2016-Apr-28 08:33N 56°01' E 012°42'0 0.0
2016-Apr-28 07:33N 56°01' E 012°42'0 0.0
2016-Apr-28 06:33N 56°01' E 012°42'0 0.0
2016-Apr-28 05:33N 56°01' E 012°42'0 0.0
2016-Apr-28 04:30N 56°01' E 012°42'0 0.0
2016-Apr-28 03:33N 56°01' E 012°42'0 0.0
2016-Apr-28 02:33N 56°01' E 012°42'0 0.0
2016-Apr-28 01:32N 56°01' E 012°42'0 0.0
2016-Apr-28 00:32N 56°01' E 012°42'0 0.0
2016-Apr-27 23:32N 56°01' E 012°42'0 0.0
2016-Apr-27 22:29N 56°01' E 012°42'0 0.0
2016-Apr-27 21:33N 56°01' E 012°42'0 0.0
2016-Apr-27 20:32N 56°01' E 012°42'0 0.0
2016-Apr-27 19:33N 56°01' E 012°42'0 0.0
2016-Apr-27 18:33N 56°01' E 012°42'0 0.0
2016-Apr-27 17:33N 56°01' E 012°42'0 0.0
2016-Apr-27 16:33N 56°01' E 012°42'0 0.0
2016-Apr-27 15:33N 56°01' E 012°42'0 0.0
2016-Apr-27 14:32N 56°01' E 012°42'0 0.0
2016-Apr-27 13:32N 56°01' E 012°42'0 0.0
2016-Apr-27 12:32N 56°01' E 012°42'0 0.0
2016-Apr-27 11:32N 56°01' E 012°42'0 0.0
2016-Apr-27 10:32N 56°01' E 012°42'6 6.4
2016-Apr-27 09:33N 55°55' E 012°44'1111.5
2016-Apr-27 08:33N 55°44' E 012°42'1110.9
2016-Apr-27 07:34N 55°33' E 012°43'1111.0
2016-Apr-27 06:33N 55°22' E 012°42'1110.8
2016-Apr-27 05:34N 55°11' E 012°40'2410.5
2016-Apr-27 03:15N 54°48' E 012°30'2111.2
2016-Apr-27 01:24N 54°29' E 012°15'8 9.7
2016-Apr-27 00:33N 54°25' E 012°03'1111.1
2016-Apr-26 23:33N 54°25' E 011°44'1110.9
2016-Apr-26 22:33N 54°30' E 011°27'1110.8
2016-Apr-26 21:34N 54°35' E 011°10'1110.8
2016-Apr-26 20:33N 54°34' E 010°51'1711.2
2016-Apr-26 19:04N 54°30' E 010°23'510.7
2016-Apr-26 18:34N 54°27' E 010°16'7 6.6
2016-Apr-26 17:33N 54°22' E 010°09'6 6.4
2016-Apr-26 16:33N 54°21' E 009°58'7 7.4
2016-Apr-26 15:33N 54°21' E 009°45'21 6.9
2016-Apr-26 12:31N 54°06' E 009°20'8 8.1
2016-Apr-26 11:33N 53°59' E 009°16'7 6.6
2016-Apr-26 10:33N 53°54' E 009°09'  

Dump ship's entire track history